Time;durP1;ratioP1;P1;durP2;ratioP2;P2;SDS_P1;SDS_P2;PMS_P1;PMS_P2;Temp;Humidity;BMP_temperature;BMP_pressure;BME280_temperature;BME280_humidity;BME280_pressure;Samples;Min_cycle;Max_cycle;Signal;HPM_P1;HPM_P2
2023/07/20 00:00:08;;;;;;;23.43;4.83;;;28.40;49.00;;;;;;5042182;28;20208;-68
2023/07/20 00:02:35;;;;;;;28.93;5.73;;;28.40;49.00;;;;;;5044548;28;20201;-69
2023/07/20 00:05:02;;;;;;;22.37;5.40;;;28.30;48.90;;;;;;5037063;28;20204;-69
2023/07/20 00:07:29;;;;;;;21.87;5.20;;;28.30;49.00;;;;;;5034024;28;20295;-69
2023/07/20 00:09:57;;;;;;;28.20;5.53;;;28.30;48.90;;;;;;5050105;28;20244;-69
2023/07/20 00:12:24;;;;;;;42.97;7.00;;;28.30;48.90;;;;;;5032036;28;20209;-69
2023/07/20 00:14:53;;;;;;;22.53;5.00;;;28.30;48.90;;;;;;5030195;28;20195;-69
2023/07/20 00:17:20;;;;;;;34.13;6.67;;;28.30;48.90;;;;;;5037339;28;20292;-69
2023/07/20 00:19:47;;;;;;;22.50;5.20;;;28.30;49.00;;;;;;5029796;28;20205;-68
2023/07/20 00:22:14;;;;;;;29.33;5.83;;;28.30;49.00;;;;;;5029435;28;20211;-69
2023/07/20 00:24:40;;;;;;;28.67;5.60;;;28.30;49.00;;;;;;5048416;28;20196;-68
2023/07/20 00:27:07;;;;;;;34.83;6.13;;;28.30;49.00;;;;;;5043633;28;20645;-72
2023/07/20 00:29:35;;;;;;;36.90;6.53;;;28.30;49.00;;;;;;5029880;28;20228;-69
2023/07/20 00:32:04;;;;;;;40.30;6.57;;;28.30;49.00;;;;;;5034608;28;20905;-73
2023/07/20 00:34:32;;;;;;;34.30;6.23;;;28.30;49.10;;;;;;5067042;28;20200;-69
2023/07/20 00:36:58;;;;;;;24.10;5.47;;;28.20;49.00;;;;;;5069396;28;20215;-70
2023/07/20 00:39:25;;;;;;;25.70;5.20;;;28.20;49.00;;;;;;5055147;28;20206;-68
2023/07/20 00:41:52;;;;;;;30.13;5.93;;;28.20;49.00;;;;;;5069288;28;20209;-70
2023/07/20 00:44:19;;;;;;;49.23;7.40;;;28.20;49.00;;;;;;5068680;28;20209;-68
2023/07/20 00:46:46;;;;;;;33.77;6.37;;;28.20;49.00;;;;;;5069493;28;20204;-67
2023/07/20 00:49:15;;;;;;;22.17;5.27;;;28.20;49.00;;;;;;5053416;28;20232;-68
2023/07/20 00:51:42;;;;;;;48.67;7.27;;;28.20;49.00;;;;;;5047849;28;20212;-70
2023/07/20 00:54:09;;;;;;;20.97;5.03;;;28.20;49.00;;;;;;5049187;28;20209;-69
2023/07/20 00:56:36;;;;;;;34.73;6.43;;;28.20;49.00;;;;;;5049300;28;20711;-69
2023/07/20 00:59:04;;;;;;;47.97;7.47;;;28.20;49.10;;;;;;5048137;28;20192;-69
2023/07/20 01:01:31;;;;;;;30.53;5.73;;;28.20;49.10;;;;;;5048989;28;20204;-68
2023/07/20 01:03:58;;;;;;;32.30;6.17;;;28.20;49.10;;;;;;5045972;28;20214;-67
2023/07/20 01:06:35;;;;;;;32.43;5.93;;;28.20;49.20;;;;;;5040850;28;20203;-68
2023/07/20 01:09:09;;;;;;;45.97;7.37;;;28.10;49.10;;;;;;5043885;28;20230;-70
2023/07/20 01:11:42;;;;;;;40.17;6.47;;;28.10;49.10;;;;;;5030503;28;20262;-72
2023/07/20 01:14:10;;;;;;;40.37;6.67;;;28.10;49.10;;;;;;5044775;28;20200;-69
2023/07/20 01:16:37;;;;;;;32.37;5.87;;;28.10;49.10;;;;;;5048028;28;20287;-68
2023/07/20 01:19:04;;;;;;;29.90;5.60;;;28.10;49.10;;;;;;5035441;28;20200;-68
2023/07/20 01:21:41;;;;;;;43.27;6.70;;;28.10;49.10;;;;;;5028331;28;20208;-68
2023/07/20 01:24:33;;;;;;;52.60;7.90;;;28.10;49.10;;;;;;5028544;28;20218;-68
2023/07/20 01:27:28;;;;;;;30.80;5.90;;;28.10;49.20;;;;;;5027706;28;20228;-71
2023/07/20 01:30:22;;;;;;;28.43;5.70;;;28.10;49.10;;;;;;5025526;28;20232;-70
2023/07/20 01:32:55;;;;;;;35.13;6.17;;;28.00;49.10;;;;;;5029304;28;20200;-72
2023/07/20 01:35:25;;;;;;;53.73;7.80;;;28.00;49.10;;;;;;5035043;28;20206;-72
2023/07/20 01:37:52;;;;;;;54.50;8.07;;;28.00;49.10;;;;;;5030778;28;20211;-74
2023/07/20 01:40:23;;;;;;;25.60;5.40;;;28.00;49.10;;;;;;5040930;28;20655;-69
2023/07/20 01:42:50;;;;;;;56.00;8.17;;;28.00;49.10;;;;;;5029910;28;20208;-75
2023/07/20 01:45:17;;;;;;;27.03;5.27;;;28.00;49.20;;;;;;5048662;28;20202;-70
2023/07/20 01:47:44;;;;;;;24.07;5.20;;;28.00;49.40;;;;;;5031609;28;20730;-71
2023/07/20 01:50:12;;;;;;;28.77;5.70;;;28.00;49.20;;;;;;5027990;28;20264;-74
2023/07/20 01:52:39;;;;;;;42.03;6.73;;;28.00;49.20;;;;;;5029170;28;20231;-71
2023/07/20 01:55:07;;;;;;;40.03;6.93;;;28.00;49.20;;;;;;5045725;28;20202;-71
2023/07/20 01:57:34;;;;;;;27.77;5.57;;;28.00;49.20;;;;;;5036062;28;20197;-68
2023/07/20 02:00:00;;;;;;;35.80;6.03;;;28.00;49.20;;;;;;5027886;28;20219;-68
2023/07/20 02:02:28;;;;;;;30.07;5.63;;;27.90;49.20;;;;;;5028159;28;20209;-74
2023/07/20 02:04:55;;;;;;;19.07;5.00;;;28.00;49.30;;;;;;5027329;28;20197;-68
2023/07/20 02:07:23;;;;;;;27.87;5.47;;;27.90;49.30;;;;;;5041751;28;20196;-70
2023/07/20 02:09:50;;;;;;;24.90;5.50;;;27.90;49.20;;;;;;5033294;28;20228;-69
2023/07/20 02:12:17;;;;;;;56.40;7.83;;;27.90;49.30;;;;;;5028050;28;20213;-68
2023/07/20 02:14:44;;;;;;;23.47;5.10;;;27.90;49.30;;;;;;5032529;28;20233;-68
2023/07/20 02:17:11;;;;;;;27.73;5.77;;;27.90;49.30;;;;;;5028063;28;20219;-68
2023/07/20 02:19:38;;;;;;;23.97;4.93;;;27.90;49.30;;;;;;5028288;28;20193;-69
2023/07/20 02:22:06;;;;;;;27.60;5.70;;;27.90;49.30;;;;;;5038465;28;20240;-68
2023/07/20 02:24:34;;;;;;;26.43;5.30;;;27.90;49.30;;;;;;5048286;28;20199;-68
2023/07/20 02:27:01;;;;;;;29.03;5.57;;;27.90;49.30;;;;;;5034829;28;20231;-72
2023/07/20 02:29:28;;;;;;;32.17;5.90;;;27.90;49.30;;;;;;5065331;28;20215;-69
2023/07/20 02:31:55;;;;;;;41.80;6.73;;;27.90;49.40;;;;;;5048896;28;20199;-68
2023/07/20 02:34:22;;;;;;;28.90;5.77;;;27.90;49.40;;;;;;5044844;28;20200;-68
2023/07/20 02:36:49;;;;;;;26.80;5.30;;;27.90;49.40;;;;;;5047590;28;20212;-69
2023/07/20 02:39:16;;;;;;;26.00;5.23;;;27.90;49.40;;;;;;5027882;28;20205;-69
2023/07/20 02:41:44;;;;;;;41.30;6.90;;;27.90;49.40;;;;;;5056912;28;20197;-69
2023/07/20 02:44:11;;;;;;;29.83;5.80;;;27.90;49.40;;;;;;5027957;28;20197;-68
2023/07/20 02:46:38;;;;;;;29.70;5.67;;;27.80;49.40;;;;;;5027605;28;20198;-69
2023/07/20 02:49:05;;;;;;;32.00;5.90;;;27.80;49.40;;;;;;5045601;28;20311;-68
2023/07/20 02:51:32;;;;;;;25.07;5.50;;;27.80;49.40;;;;;;5047710;28;20192;-69
2023/07/20 02:54:00;;;;;;;21.93;4.97;;;27.80;49.40;;;;;;5047463;28;20235;-69
2023/07/20 02:56:27;;;;;;;25.37;5.60;;;27.80;49.40;;;;;;5040606;28;20216;-69
2023/07/20 02:58:55;;;;;;;25.03;5.40;;;27.80;49.40;;;;;;5048000;28;20291;-69
2023/07/20 03:01:22;;;;;;;36.53;6.13;;;27.80;49.40;;;;;;5030880;28;20204;-69
2023/07/20 03:03:49;;;;;;;33.57;5.97;;;27.80;49.40;;;;;;5027836;28;20192;-70
2023/07/20 03:06:17;;;;;;;31.00;5.87;;;27.80;49.40;;;;;;5040489;28;20215;-69
2023/07/20 03:08:47;;;;;;;22.77;4.87;;;27.80;50.00;;;;;;5026890;28;20287;-69
2023/07/20 03:11:14;;;;;;;64.27;8.87;;;27.80;49.40;;;;;;5039688;28;20212;-69
2023/07/20 03:13:42;;;;;;;50.17;7.63;;;27.80;49.40;;;;;;5032492;28;20251;-68
2023/07/20 03:16:11;;;;;;;36.33;5.73;;;27.80;49.40;;;;;;5042263;28;20207;-68
2023/07/20 03:18:38;;;;;;;45.33;6.93;;;27.80;49.50;;;;;;5032363;28;20760;-69
2023/07/20 03:21:05;;;;;;;52.50;7.63;;;27.80;49.50;;;;;;5041298;28;20604;-68
2023/07/20 03:23:32;;;;;;;28.63;5.57;;;27.80;49.50;;;;;;5030444;28;20291;-70
2023/07/20 03:25:59;;;;;;;40.20;6.50;;;27.70;49.40;;;;;;5030166;28;20225;-69
2023/07/20 03:28:26;;;;;;;25.57;5.50;;;27.80;49.50;;;;;;5030333;28;20193;-68
2023/07/20 03:30:54;;;;;;;49.10;7.00;;;27.80;49.50;;;;;;5042585;28;20231;-69
2023/07/20 03:33:23;;;;;;;26.53;5.30;;;27.80;49.50;;;;;;5040659;28;20656;-68
2023/07/20 03:35:50;;;;;;;43.43;7.10;;;27.70;49.50;;;;;;5030287;28;20197;-69
2023/07/20 03:38:16;;;;;;;40.10;6.93;;;27.70;49.50;;;;;;5046663;28;20205;-69
2023/07/20 03:40:51;;;;;;;25.43;5.27;;;27.70;49.50;;;;;;5051426;28;20200;-70
2023/07/20 03:43:17;;;;;;;50.43;7.37;;;27.70;49.50;;;;;;5034866;28;20629;-68
2023/07/20 03:45:45;;;;;;;29.53;5.73;;;27.70;49.50;;;;;;5037865;28;20204;-68
2023/07/20 03:48:12;;;;;;;29.80;5.83;;;27.70;49.50;;;;;;5047381;28;20233;-69
2023/07/20 03:50:40;;;;;;;28.20;5.43;;;27.70;49.50;;;;;;5048799;28;20242;-69
2023/07/20 03:53:07;;;;;;;23.20;4.87;;;27.70;49.50;;;;;;5037647;28;20200;-69
2023/07/20 03:55:34;;;;;;;31.80;5.97;;;27.70;49.50;;;;;;5030078;28;20189;-74
2023/07/20 03:58:01;;;;;;;30.50;5.80;;;27.70;49.60;;;;;;5044249;28;20672;-68
2023/07/20 04:00:28;;;;;;;31.63;5.97;;;27.70;49.60;;;;;;5049507;28;20800;-69
2023/07/20 04:02:55;;;;;;;34.27;6.20;;;27.70;49.50;;;;;;5049513;28;20931;-68
2023/07/20 04:05:22;;;;;;;35.30;6.17;;;27.70;49.60;;;;;;5049676;28;20249;-73
2023/07/20 04:07:51;;;;;;;20.23;4.57;;;27.70;49.60;;;;;;5049550;28;20727;-69
2023/07/20 04:10:18;;;;;;;19.33;4.63;;;27.70;49.60;;;;;;5049823;28;20608;-70
2023/07/20 04:12:46;;;;;;;31.20;5.90;;;27.70;49.60;;;;;;5049795;28;20683;-69
2023/07/20 04:15:14;;;;;;;36.97;6.07;;;27.70;49.60;;;;;;5046591;28;20204;-69
2023/07/20 04:17:41;;;;;;;23.47;5.10;;;27.70;49.60;;;;;;5043773;28;20222;-69
2023/07/20 04:20:09;;;;;;;23.80;5.33;;;27.70;49.60;;;;;;5045867;28;20612;-69
2023/07/20 04:22:36;;;;;;;26.53;5.30;;;27.70;49.70;;;;;;5029561;28;20201;-69
2023/07/20 04:25:05;;;;;;;31.87;5.90;;;27.70;49.70;;;;;;5033596;28;20216;-69
2023/07/20 04:27:32;;;;;;;18.27;5.00;;;27.70;49.70;;;;;;5037398;28;20207;-69
2023/07/20 04:30:00;;;;;;;55.50;7.90;;;27.60;49.60;;;;;;5041654;28;20228;-72
2023/07/20 04:32:27;;;;;;;26.43;5.43;;;27.70;50.30;;;;;;5041615;28;20204;-70
2023/07/20 04:34:54;;;;;;;42.10;6.80;;;27.70;49.70;;;;;;5042270;28;20212;-70
2023/07/20 04:37:21;;;;;;;24.80;5.43;;;27.70;49.70;;;;;;5037252;28;20214;-70
2023/07/20 04:39:47;;;;;;;51.47;7.63;;;27.70;49.70;;;;;;5038730;28;20211;-75
2023/07/20 04:42:16;;;;;;;26.00;5.60;;;27.70;49.70;;;;;;5035314;28;20205;-72
2023/07/20 04:44:43;;;;;;;28.43;5.63;;;27.60;49.70;;;;;;5040849;28;20900;-70
2023/07/20 04:47:10;;;;;;;27.27;5.45;;;27.70;49.70;;;;;;5047737;28;20429;-71
2023/07/20 04:49:37;;;;;;;28.87;5.53;;;27.50;50.20;;;;;;5049117;28;20596;-68
2023/07/20 04:52:04;;;;;;;19.63;4.93;;;27.50;50.00;;;;;;5041062;28;20988;-68
2023/07/20 04:54:31;;;;;;;30.97;6.33;;;27.50;50.00;;;;;;5044620;28;20204;-68
2023/07/20 04:56:58;;;;;;;26.27;5.47;;;27.60;50.00;;;;;;5039898;28;20215;-69
2023/07/20 04:59:26;;;;;;;46.97;7.30;;;27.70;50.00;;;;;;5031134;28;20204;-69
2023/07/20 05:01:53;;;;;;;47.03;7.30;;;27.60;49.80;;;;;;5032891;28;20196;-68
2023/07/20 05:04:20;;;;;;;32.87;6.27;;;27.60;49.80;;;;;;5038566;28;20619;-69
2023/07/20 05:06:47;;;;;;;37.73;6.70;;;27.60;49.80;;;;;;5047912;28;20195;-69
2023/07/20 05:09:14;;;;;;;38.23;6.53;;;27.60;49.80;;;;;;5047263;28;20196;-74
2023/07/20 05:11:40;;;;;;;41.10;7.07;;;27.60;49.80;;;;;;5041055;28;20226;-74
2023/07/20 05:14:07;;;;;;;59.60;8.53;;;27.60;49.70;;;;;;5043850;28;20207;-67
2023/07/20 05:16:35;;;;;;;49.17;7.43;;;27.60;49.70;;;;;;5029850;28;20206;-67
2023/07/20 05:19:02;;;;;;;31.67;6.07;;;27.50;49.70;;;;;;5041038;28;20202;-76
2023/07/20 05:21:29;;;;;;;29.77;6.20;;;27.50;49.70;;;;;;5047345;28;20299;-71
2023/07/20 05:23:56;;;;;;;31.83;6.30;;;27.50;49.80;;;;;;5049137;28;20246;-76
2023/07/20 05:26:23;;;;;;;37.23;6.60;;;27.50;49.90;;;;;;5051063;28;20211;-75
2023/07/20 05:28:50;;;;;;;47.63;7.27;;;27.50;50.00;;;;;;5035111;28;20209;-74
2023/07/20 05:31:17;;;;;;;30.40;6.60;;;27.50;49.90;;;;;;5045765;28;20220;-71
2023/07/20 05:33:45;;;;;;;29.50;6.10;;;27.50;50.00;;;;;;5047814;28;20196;-71
2023/07/20 05:36:12;;;;;;;33.30;6.57;;;27.50;50.00;;;;;;5046211;28;20235;-72
2023/07/20 05:38:40;;;;;;;42.17;7.53;;;27.40;49.90;;;;;;5036812;28;20212;-71
2023/07/20 05:41:10;;;;;;;39.03;7.27;;;27.40;49.90;;;;;;5048486;28;20207;-71
2023/07/20 05:43:37;;;;;;;36.60;6.87;;;27.40;49.90;;;;;;5032880;28;20825;-73
2023/07/20 05:46:05;;;;;;;30.30;6.57;;;27.40;49.90;;;;;;5031320;28;20215;-69
2023/07/20 05:48:31;;;;;;;26.03;6.17;;;27.40;50.00;;;;;;5042731;28;20204;-72
2023/07/20 05:51:00;;;;;;;42.43;7.57;;;27.30;50.00;;;;;;5034484;28;21726;-81
2023/07/20 05:53:26;;;;;;;31.20;6.13;;;27.30;50.00;;;;;;5033810;28;20394;-73
2023/07/20 05:55:54;;;;;;;41.30;7.50;;;27.30;50.10;;;;;;5046137;28;20204;-69
2023/07/20 05:58:21;;;;;;;37.77;6.93;;;27.30;50.10;;;;;;5043229;28;20257;-70
2023/07/20 06:00:49;;;;;;;21.87;5.60;;;27.30;50.10;;;;;;5047033;28;20202;-71
2023/07/20 06:03:17;;;;;;;33.10;6.17;;;27.30;50.00;;;;;;5046998;28;20273;-71
2023/07/20 06:05:43;;;;;;;30.70;6.40;;;27.20;50.00;;;;;;5035417;28;20661;-69
2023/07/20 06:08:12;;;;;;;80.63;10.53;;;27.20;50.00;;;;;;5031529;28;21236;-69
2023/07/20 06:10:38;;;;;;;36.43;6.67;;;27.20;50.00;;;;;;5033652;28;20228;-69
2023/07/20 06:13:05;;;;;;;35.50;6.37;;;27.20;50.00;;;;;;5031331;28;20563;-73
2023/07/20 06:15:35;;;;;;;37.17;6.43;;;27.20;50.10;;;;;;5042931;28;20208;-74
2023/07/20 06:18:03;;;;;;;40.20;6.73;;;27.20;50.20;;;;;;5039116;28;20287;-69
2023/07/20 06:20:30;;;;;;;34.40;6.70;;;27.20;50.20;;;;;;5045004;28;20208;-70
2023/07/20 06:22:57;;;;;;;29.50;5.57;;;27.20;50.20;;;;;;5048895;28;20188;-69
2023/07/20 06:25:25;;;;;;;37.13;6.27;;;27.20;50.20;;;;;;5047471;28;20224;-69
2023/07/20 06:27:52;;;;;;;21.57;4.93;;;27.20;50.80;;;;;;5047608;28;20536;-69
2023/07/20 06:30:19;;;;;;;30.87;5.63;;;27.20;50.20;;;;;;5027987;28;20243;-69
2023/07/20 06:32:46;;;;;;;31.47;6.27;;;27.20;50.20;;;;;;5032173;28;20199;-70
2023/07/20 06:35:13;;;;;;;55.97;8.17;;;27.20;50.20;;;;;;5043595;28;20204;-75
2023/07/20 06:37:40;;;;;;;33.87;6.20;;;27.20;50.30;;;;;;5032485;28;20680;-68
2023/07/20 06:40:08;;;;;;;35.23;6.40;;;27.20;50.20;;;;;;5042947;28;20204;-67
2023/07/20 06:42:37;;;;;;;38.07;6.63;;;27.20;50.20;;;;;;5045782;28;20200;-70
2023/07/20 06:45:04;;;;;;;34.17;6.10;;;27.20;50.20;;;;;;5032261;28;20691;-71
2023/07/20 06:47:31;;;;;;;54.47;8.17;;;27.20;50.20;;;;;;5036545;28;20201;-70
2023/07/20 06:49:58;;;;;;;23.80;5.03;;;27.20;50.20;;;;;;5028285;28;20205;-73
2023/07/20 06:52:25;;;;;;;30.47;5.53;;;27.30;50.40;;;;;;5028203;28;20567;-70
2023/07/20 06:54:52;;;;;;;27.87;5.87;;;27.20;50.20;;;;;;5042473;28;20584;-70
2023/07/20 06:57:19;;;;;;;30.90;5.57;;;27.20;50.30;;;;;;5053441;28;20642;-71
2023/07/20 06:59:47;;;;;;;19.70;4.83;;;27.20;50.20;;;;;;5037568;28;20197;-71
2023/07/20 07:02:14;;;;;;;32.87;5.70;;;27.30;50.30;;;;;;5061464;28;20628;-73
2023/07/20 07:04:41;;;;;;;30.53;5.60;;;27.30;50.30;;;;;;5051499;28;20227;-70
2023/07/20 07:07:08;;;;;;;33.13;6.03;;;27.30;50.30;;;;;;5045826;28;20310;-71
2023/07/20 07:09:35;;;;;;;32.93;5.60;;;27.30;50.30;;;;;;5037755;28;20205;-70
2023/07/20 07:12:02;;;;;;;55.33;7.93;;;27.30;50.30;;;;;;5044792;28;20232;-72
2023/07/20 07:14:29;;;;;;;25.23;5.47;;;27.30;50.30;;;;;;5051623;28;20201;-70
2023/07/20 07:16:57;;;;;;;27.83;5.47;;;27.30;50.30;;;;;;5036629;28;20204;-73
2023/07/20 07:19:25;;;;;;;29.37;5.60;;;27.30;50.30;;;;;;5051637;28;20207;-70
2023/07/20 07:21:51;;;;;;;23.60;5.23;;;27.30;50.30;;;;;;5046692;28;20660;-70
2023/07/20 07:24:18;;;;;;;24.97;5.10;;;27.40;50.40;;;;;;5044373;28;20307;-70
2023/07/20 07:26:45;;;;;;;27.83;5.30;;;27.30;50.30;;;;;;5048632;28;20208;-72
2023/07/20 07:29:12;;;;;;;37.87;6.30;;;27.30;50.30;;;;;;5039820;28;20287;-71
2023/07/20 07:31:39;;;;;;;33.63;5.97;;;27.30;50.30;;;;;;5036142;28;20640;-70
2023/07/20 07:34:08;;;;;;;27.20;5.30;;;27.30;50.30;;;;;;5048280;28;20200;-70
2023/07/20 07:36:35;;;;;;;40.63;6.80;;;27.40;50.30;;;;;;5049005;28;20625;-74
2023/07/20 07:39:01;;;;;;;29.80;5.47;;;27.40;50.40;;;;;;5041009;28;20205;-70
2023/07/20 07:41:28;;;;;;;44.80;6.90;;;27.40;50.40;;;;;;5032684;28;20755;-70
2023/07/20 07:43:55;;;;;;;47.90;7.07;;;27.40;50.30;;;;;;5041729;28;20204;-70
2023/07/20 07:46:22;;;;;;;28.73;5.60;;;27.40;50.40;;;;;;5057252;28;20207;-70
2023/07/20 07:48:50;;;;;;;32.67;6.00;;;27.40;50.40;;;;;;5044298;28;20201;-73
2023/07/20 07:51:18;;;;;;;24.93;5.20;;;27.40;50.40;;;;;;5030651;28;20231;-71
2023/07/20 07:53:46;;;;;;;65.63;8.87;;;27.40;50.40;;;;;;5038838;28;20295;-72
2023/07/20 07:56:13;;;;;;;27.93;5.60;;;27.40;50.30;;;;;;5036027;28;20192;-76
2023/07/20 07:58:40;;;;;;;60.83;8.37;;;27.40;50.30;;;;;;5050249;28;20208;-69
2023/07/20 08:01:07;;;;;;;28.50;5.43;;;27.40;50.30;;;;;;5052300;28;20196;-71
2023/07/20 08:03:35;;;;;;;25.27;5.20;;;27.40;50.40;;;;;;5047130;28;20230;-70
2023/07/20 08:06:04;;;;;;;21.10;5.30;;;27.40;50.30;;;;;;5036411;28;20740;-70
2023/07/20 08:08:32;;;;;;;28.23;5.67;;;27.40;50.30;;;;;;5044170;28;20235;-69
2023/07/20 08:10:59;;;;;;;43.63;6.67;;;27.40;50.30;;;;;;5059753;28;20239;-71
2023/07/20 08:13:26;;;;;;;32.60;5.60;;;27.40;50.30;;;;;;5045847;28;21010;-70
2023/07/20 08:15:54;;;;;;;36.63;6.30;;;27.40;50.40;;;;;;5038001;28;20203;-69
2023/07/20 08:18:21;;;;;;;36.60;5.83;;;27.40;50.30;;;;;;5049546;28;20735;-70
2023/07/20 08:20:49;;;;;;;24.23;5.27;;;27.40;50.30;;;;;;5047048;28;20199;-69
2023/07/20 08:23:16;;;;;;;26.30;5.13;;;27.40;50.40;;;;;;5069773;28;20210;-69
2023/07/20 08:25:44;;;;;;;40.50;6.13;;;27.30;50.30;;;;;;5046008;28;20321;-78
2023/07/20 08:28:11;;;;;;;34.53;5.83;;;27.30;50.30;;;;;;5049016;28;20293;-68
2023/07/20 08:30:43;;;;;;;29.77;5.43;;;27.30;50.40;;;;;;5044238;28;20203;-70
2023/07/20 08:33:11;;;;;;;35.40;6.03;;;27.30;50.30;;;;;;5054423;28;20192;-76
2023/07/20 08:35:38;;;;;;;25.93;5.37;;;27.30;50.30;;;;;;5049857;28;20564;-71
2023/07/20 08:38:05;;;;;;;27.33;5.40;;;27.30;50.90;;;;;;5038520;28;20239;-70
2023/07/20 08:40:32;;;;;;;39.07;6.33;;;27.30;50.30;;;;;;5047397;28;20604;-70
2023/07/20 08:43:01;;;;;;;48.93;7.07;;;27.30;50.40;;;;;;5043695;28;20208;-69
2023/07/20 08:45:30;;;;;;;20.93;4.93;;;27.30;50.40;;;;;;5044875;28;20204;-75
2023/07/20 08:47:58;;;;;;;25.53;5.00;;;27.30;50.40;;;;;;5049220;28;20644;-69
2023/07/20 08:50:29;;;;;;;29.83;5.73;;;27.30;50.40;;;;;;5035117;28;20205;-69
2023/07/20 08:52:58;;;;;;;31.53;5.53;;;27.30;50.40;;;;;;5028121;28;20212;-68
2023/07/20 08:55:26;;;;;;;28.80;5.37;;;27.30;50.50;;;;;;5041214;28;20605;-76
2023/07/20 08:57:54;;;;;;;32.73;5.90;;;27.30;50.50;;;;;;5034722;28;20858;-79
2023/07/20 09:00:26;;;;;;;24.70;4.90;;;27.40;50.50;;;;;;5030204;28;20208;-87
2023/07/20 09:02:54;;;;;;;34.87;5.87;;;27.40;50.60;;;;;;5038181;28;20200;-74
2023/07/20 09:05:22;;;;;;;38.63;6.47;;;27.40;50.50;;;;;;5048240;28;20208;-76
2023/07/20 09:07:49;;;;;;;46.57;6.83;;;27.40;50.60;;;;;;5049467;28;20204;-82
2023/07/20 09:10:16;;;;;;;33.83;5.73;;;27.40;50.50;;;;;;5036338;28;20285;-78
2023/07/20 09:12:44;;;;;;;27.60;5.43;;;27.40;50.50;;;;;;5034267;28;20220;-75
2023/07/20 09:15:12;;;;;;;35.53;6.10;;;27.40;50.50;;;;;;5028969;28;20197;-84
2023/07/20 09:17:46;;;;;;;27.97;5.37;;;27.40;50.50;;;;;;5038939;28;20204;-68
2023/07/20 09:20:15;;;;;;;66.20;8.43;;;27.50;50.50;;;;;;5041430;28;20207;-75
2023/07/20 09:22:43;;;;;;;29.17;5.17;;;27.50;50.50;;;;;;5064240;28;20372;-81
2023/07/20 09:25:14;;;;;;;30.70;5.77;;;27.50;50.60;;;;;;5056302;28;20228;-73
2023/07/20 09:27:42;;;;;;;27.00;5.27;;;27.50;50.70;;;;;;5045725;28;20649;-86
2023/07/20 09:30:13;;;;;;;64.00;8.50;;;27.50;50.70;;;;;;5037399;28;20215;-73
2023/07/20 09:32:44;;;;;;;33.13;5.70;;;27.50;50.60;;;;;;5032067;28;20235;-77
2023/07/20 09:35:15;;;;;;;39.90;6.60;;;27.60;50.60;;;;;;5054382;28;20565;-77
2023/07/20 09:37:48;;;;;;;24.10;5.20;;;27.60;50.60;;;;;;5047745;28;20208;-87
2023/07/20 09:40:18;;;;;;;54.73;7.80;;;27.60;50.50;;;;;;5041373;28;20424;-83
2023/07/20 09:42:45;;;;;;;37.57;6.23;;;27.60;50.50;;;;;;5041458;28;20760;-78
2023/07/20 09:45:12;;;;;;;33.60;5.77;;;27.60;50.50;;;;;;5040094;28;20203;-72
2023/07/20 09:47:41;;;;;;;28.67;5.43;;;27.60;50.50;;;;;;5036120;28;20212;-68
2023/07/20 09:50:10;;;;;;;29.57;5.63;;;27.60;50.50;;;;;;5027958;28;20657;-71
2023/07/20 09:52:40;;;;;;;24.47;5.17;;;27.70;50.40;;;;;;5030751;28;20609;-73
2023/07/20 09:55:08;;;;;;;29.13;5.43;;;27.60;50.30;;;;;;5030064;28;20243;-69
2023/07/20 09:57:36;;;;;;;28.63;5.57;;;27.70;50.40;;;;;;5037718;28;20220;-77
2023/07/20 10:00:08;;;;;;;36.30;6.43;;;27.60;50.30;;;;;;5041408;28;20246;-72
2023/07/20 10:02:42;;;;;;;27.57;5.53;;;27.70;50.30;;;;;;5033788;28;20232;-74
2023/07/20 10:05:12;;;;;;;38.43;6.13;;;27.70;50.40;;;;;;5039926;28;20235;-69
2023/07/20 10:07:46;;;;;;;45.17;7.10;;;27.70;50.40;;;;;;5040091;28;20240;-69
2023/07/20 10:10:16;;;;;;;34.27;6.13;;;27.70;50.40;;;;;;5045753;28;20657;-69
2023/07/20 10:12:44;;;;;;;26.43;5.70;;;27.70;50.40;;;;;;5037117;28;20234;-71
2023/07/20 10:15:16;;;;;;;32.27;5.47;;;27.70;50.40;;;;;;5036177;28;20206;-81
2023/07/20 10:17:54;;;;;;;30.07;5.43;;;27.80;50.60;;;;;;5045826;28;20206;-87
2023/07/20 10:20:22;;;;;;;23.80;5.30;;;27.80;50.60;;;;;;5047855;28;20198;-90
2023/07/20 10:22:53;;;;;;;18.40;4.10;;;27.80;50.60;;;;;;5061469;28;20213;-81
2023/07/20 10:25:23;;;;;;;32.73;5.67;;;27.80;50.60;;;;;;5048738;28;20223;-72
2023/07/20 10:27:50;;;;;;;37.17;6.07;;;27.90;50.60;;;;;;5040269;28;20204;-86
2023/07/20 10:30:19;;;;;;;19.87;4.43;;;27.90;50.60;;;;;;5049751;28;20211;-69
2023/07/20 10:32:46;;;;;;;50.57;7.47;;;28.00;50.70;;;;;;5041737;28;20782;-66
2023/07/20 10:35:14;;;;;;;35.63;5.83;;;28.00;50.70;;;;;;5068584;28;20210;-68
2023/07/20 10:37:54;;;;;;;29.33;5.63;;;28.00;50.70;;;;;;5058301;28;20220;-65
2023/07/20 10:40:30;;;;;;;20.43;4.77;;;28.10;50.80;;;;;;5044399;28;20652;-73
2023/07/20 10:43:01;;;;;;;32.70;6.00;;;28.20;50.90;;;;;;5047638;28;20199;-67
2023/07/20 10:45:40;;;;;;;59.30;8.20;;;28.20;50.90;;;;;;5042094;28;20200;-69
2023/07/20 10:48:14;;;;;;;20.90;4.90;;;28.30;50.90;;;;;;5036178;28;20617;-69
2023/07/20 10:50:42;;;;;;;40.63;6.40;;;28.40;50.80;;;;;;5048603;28;20211;-68
2023/07/20 10:53:16;;;;;;;27.47;5.20;;;28.40;50.70;;;;;;5051657;28;20219;-68
2023/07/20 10:55:43;;;;;;;19.07;4.47;;;28.50;50.60;;;;;;5049694;28;20609;-73
2023/07/20 10:58:14;;;;;;;31.63;5.33;;;28.60;50.60;;;;;;5050321;28;20204;-73
2023/07/20 11:00:59;;;;;;;42.97;6.87;;;28.60;50.50;;;;;;5045563;28;20281;-70
2023/07/20 11:03:31;;;;;;;31.57;5.93;;;28.70;50.40;;;;;;5050694;28;20200;-68
2023/07/20 11:05:58;;;;;;;40.73;6.53;;;28.70;50.30;;;;;;5046561;28;20215;-68
2023/07/20 11:08:44;;;;;;;30.00;5.33;;;28.70;50.20;;;;;;5031994;28;20205;-68
2023/07/20 11:11:24;;;;;;;33.13;5.63;;;28.70;50.10;;;;;;5043422;28;20668;-68
2023/07/20 11:13:57;;;;;;;36.63;6.13;;;28.70;50.00;;;;;;5047959;28;20212;-69
2023/07/20 11:16:38;;;;;;;22.80;4.53;;;28.70;50.00;;;;;;5031080;28;20268;-70
2023/07/20 11:19:05;;;;;;;26.33;5.03;;;28.70;49.90;;;;;;5034201;28;20214;-68
2023/07/20 11:21:38;;;;;;;42.83;6.67;;;28.70;50.00;;;;;;5040941;28;20204;-71
2023/07/20 11:24:09;;;;;;;24.40;4.87;;;28.70;49.90;;;;;;5050658;28;20231;-69
2023/07/20 11:26:46;;;;;;;27.13;5.30;;;28.70;49.90;;;;;;5049232;28;20491;-68
2023/07/20 11:29:13;;;;;;;24.63;4.80;;;28.70;50.00;;;;;;5048360;28;20292;-68
2023/07/20 11:31:42;;;;;;;36.37;6.10;;;28.60;49.90;;;;;;5042795;28;20196;-68
2023/07/20 11:34:12;;;;;;;22.63;4.60;;;28.60;49.90;;;;;;5046776;28;20208;-77
2023/07/20 11:36:40;;;;;;;28.20;5.13;;;28.60;50.00;;;;;;5050031;28;20204;-69
2023/07/20 11:39:09;;;;;;;35.30;5.87;;;28.60;50.00;;;;;;5048776;28;20214;-71
2023/07/20 11:41:36;;;;;;;23.97;4.77;;;28.50;49.90;;;;;;5067177;28;20593;-74
2023/07/20 11:44:03;;;;;;;28.13;5.13;;;28.50;49.90;;;;;;5070273;28;20210;-69
2023/07/20 11:46:30;;;;;;;21.93;4.63;;;28.50;49.90;;;;;;5070061;28;20199;-70
2023/07/20 11:48:59;;;;;;;17.53;4.10;;;28.40;49.90;;;;;;5050339;28;20200;-72
2023/07/20 11:51:27;;;;;;;68.40;8.47;;;28.40;49.90;;;;;;5046425;28;20946;-79
2023/07/20 11:53:54;;;;;;;32.07;5.67;;;28.40;49.90;;;;;;5067343;28;20211;-75
2023/07/20 11:56:24;;;;;;;26.37;5.50;;;28.40;50.00;;;;;;5070072;28;20209;-75
2023/07/20 11:58:51;;;;;;;35.77;5.77;;;28.40;50.00;;;;;;5047698;28;20206;-73
2023/07/20 12:01:20;;;;;;;25.23;4.90;;;28.30;50.00;;;;;;5049222;28;20653;-74
2023/07/20 12:03:48;;;;;;;31.73;5.57;;;28.30;50.00;;;;;;5040932;28;20579;-74
2023/07/20 12:06:15;;;;;;;35.83;6.00;;;28.30;50.00;;;;;;5069917;28;20686;-75
2023/07/20 12:08:44;;;;;;;18.70;4.47;;;28.30;50.00;;;;;;5051945;28;20207;-68
2023/07/20 12:11:11;;;;;;;27.73;5.13;;;28.30;50.00;;;;;;5050740;28;20196;-69
2023/07/20 12:13:42;;;;;;;32.23;5.50;;;28.30;50.00;;;;;;5047416;28;20323;-69
2023/07/20 12:16:14;;;;;;;20.03;4.53;;;28.20;50.00;;;;;;5049386;28;20278;-70
2023/07/20 12:18:41;;;;;;;35.03;5.90;;;28.20;50.00;;;;;;5053353;28;20708;-70
2023/07/20 12:21:08;;;;;;;27.37;5.37;;;28.20;50.00;;;;;;5036418;28;20205;-68
2023/07/20 12:23:42;;;;;;;23.30;4.90;;;28.20;50.00;;;;;;5047557;28;20215;-70
2023/07/20 12:26:10;;;;;;;21.80;4.67;;;28.10;50.00;;;;;;5050019;28;20207;-71
2023/07/20 12:28:41;;;;;;;45.23;7.13;;;28.10;50.10;;;;;;5047435;28;20286;-71
2023/07/20 12:31:09;;;;;;;30.73;5.47;;;28.10;50.10;;;;;;5040579;28;20204;-69
2023/07/20 12:33:36;;;;;;;31.50;5.60;;;28.10;50.10;;;;;;5048418;28;20252;-68
2023/07/20 12:36:04;;;;;;;37.63;6.27;;;28.10;50.20;;;;;;5048948;28;20622;-72
2023/07/20 12:38:31;;;;;;;20.60;4.67;;;28.00;50.10;;;;;;5030155;28;20204;-68
2023/07/20 12:40:59;;;;;;;26.07;4.93;;;28.00;50.20;;;;;;5046958;28;20207;-72